TimeMST,TemperatureF,Dew PointF,Humidity,Sea Level PressureIn,VisibilityMPH,Wind Direction,Wind SpeedMPH,Gust SpeedMPH,PrecipitationIn,Events,Conditions,WindDirDegrees,DateUTC
12:16 AM,23.0,-9.4,24,30.14,10.0,SW,17.3,-,N/A,,Scattered Clouds,230,2012-11-13 07:16:00
12:36 AM,23.0,-14.8,18,30.13,10.0,SW,17.3,-,N/A,,Scattered Clouds,230,2012-11-13 07:36:00
12:56 AM,23.0,-16.6,17,30.13,10.0,SW,19.6,-,N/A,,Mostly Cloudy,230,2012-11-13 07:56:00
1:16 AM,24.8,-23.8,11,30.13,10.0,SSW,18.4,-,N/A,,Overcast,210,2012-11-13 08:16:00
1:36 AM,24.8,-9.4,22,30.12,10.0,SW,17.3,-,N/A,,Overcast,220,2012-11-13 08:36:00
1:56 AM,24.8,-2.2,31,30.12,10.0,SSW,17.3,-,N/A,,Mostly Cloudy,210,2012-11-13 08:56:00
2:16 AM,23.0,-7.6,26,30.12,10.0,SW,15.0,-,N/A,,Mostly Cloudy,230,2012-11-13 09:16:00
2:36 AM,23.0,-11.2,22,30.12,10.0,WSW,12.7,-,N/A,,Mostly Cloudy,240,2012-11-13 09:36:00
2:56 AM,23.0,-5.8,28,30.12,10.0,WSW,13.8,-,N/A,,Overcast,250,2012-11-13 09:56:00
3:16 AM,21.2,-5.8,30,30.12,10.0,West,12.7,-,N/A,,Overcast,260,2012-11-13 10:16:00
3:36 AM,21.2,-0.4,39,30.12,10.0,West,12.7,-,N/A,,Overcast,280,2012-11-13 10:36:00
3:56 AM,21.2,-0.4,39,30.11,10.0,West,12.7,-,N/A,,Overcast,280,2012-11-13 10:56:00
4:16 AM,21.2,1.4,42,30.12,10.0,West,12.7,-,N/A,,Overcast,280,2012-11-13 11:16:00
4:36 AM,23.0,-2.2,33,30.12,10.0,West,15.0,21.9,N/A,,Overcast,260,2012-11-13 11:36:00
4:56 AM,21.2,1.4,42,30.12,10.0,West,12.7,17.3,N/A,,Overcast,270,2012-11-13 11:56:00
5:16 AM,21.2,3.2,46,30.12,10.0,West,15.0,-,N/A,,Overcast,260,2012-11-13 12:16:00
5:36 AM,21.2,3.2,46,30.12,10.0,West,11.5,17.3,N/A,,Overcast,280,2012-11-13 12:36:00
5:56 AM,21.2,1.4,42,30.13,10.0,WNW,15.0,20.7,N/A,,Overcast,290,2012-11-13 12:56:00
6:16 AM,21.2,1.4,42,30.13,10.0,West,13.8,19.6,N/A,,Overcast,280,2012-11-13 13:16:00
6:36 AM,21.2,-0.4,39,30.13,10.0,West,11.5,19.6,N/A,,Overcast,270,2012-11-13 13:36:00
6:56 AM,21.2,-0.4,39,30.12,10.0,West,13.8,20.7,N/A,,Overcast,270,2012-11-13 13:56:00
7:16 AM,19.4,1.4,46,30.13,10.0,West,12.7,19.6,N/A,,Overcast,270,2012-11-13 14:16:00
7:36 AM,19.4,3.2,49,30.14,10.0,WNW,11.5,16.1,N/A,,Overcast,290,2012-11-13 14:36:00
7:56 AM,19.4,5.0,54,30.15,10.0,WNW,13.8,-,N/A,,Overcast,290,2012-11-13 14:56:00
8:16 AM,19.4,5.0,54,30.15,10.0,West,15.0,-,N/A,,Overcast,280,2012-11-13 15:16:00
8:36 AM,19.4,5.0,54,30.15,10.0,WNW,16.1,19.6,N/A,Snow,Light Snow,290,2012-11-13 15:36:00
8:56 AM,17.6,8.6,68,30.14,2.5,WNW,13.8,21.9,N/A,Snow,Light Snow,290,2012-11-13 15:56:00
9:16 AM,17.6,10.4,73,30.15,5.0,West,12.7,17.3,N/A,Snow,Light Snow,270,2012-11-13 16:16:00
9:36 AM,19.4,10.4,68,30.15,7.0,West,12.7,20.7,N/A,Snow,Light Snow,270,2012-11-13 16:36:00
9:56 AM,19.4,14.0,80,30.15,0.8,West,11.5,-,N/A,Snow,Light Snow,280,2012-11-13 16:56:00
10:16 AM,19.4,14.0,80,30.16,10.0,West,12.7,-,N/A,,Overcast,280,2012-11-13 17:16:00
10:36 AM,19.4,14.0,80,30.16,10.0,West,12.7,18.4,N/A,,Overcast,270,2012-11-13 17:36:00
10:56 AM,19.4,14.0,80,30.15,10.0,West,13.8,20.7,N/A,,Overcast,280,2012-11-13 17:56:00
11:16 AM,21.2,15.8,80,30.15,0.5,West,11.5,20.7,N/A,,Haze,270,2012-11-13 18:16:00
11:56 AM,21.2,17.6,86,30.14,0.2,West,10.4,-,N/A,Fog,Light Freezing Fog,270,2012-11-13 18:56:00
12:16 PM,21.2,17.6,86,30.14,0.2,West,8.1,-,N/A,Fog,Light Freezing Fog,270,2012-11-13 19:16:00
12:36 PM,23.0,19.4,86,30.14,0.2,WNW,4.6,-,N/A,Fog,Light Freezing Fog,290,2012-11-13 19:36:00
12:56 PM,23.0,17.6,80,30.14,3.0,West,5.8,-,N/A,,Haze,270,2012-11-13 19:56:00
1:16 PM,23.0,17.6,80,30.14,10.0,SW,5.8,-,N/A,,Overcast,220,2012-11-13 20:16:00
1:36 PM,23.0,17.6,80,30.14,10.0,SW,4.6,-,N/A,,Overcast,230,2012-11-13 20:36:00
1:56 PM,23.0,17.6,80,30.15,10.0,SSW,9.2,-,N/A,,Overcast,200,2012-11-13 20:56:00
2:16 PM,23.0,17.6,80,30.14,10.0,SW,8.1,-,N/A,,Overcast,230,2012-11-13 21:16:00
2:36 PM,23.0,19.4,86,30.14,10.0,WSW,8.1,-,N/A,,Overcast,250,2012-11-13 21:36:00
2:56 PM,23.0,17.6,80,30.14,10.0,West,11.5,16.1,N/A,,Overcast,260,2012-11-13 21:56:00
3:16 PM,24.8,19.4,80,30.14,10.0,West,13.8,19.6,N/A,,Mostly Cloudy,270,2012-11-13 22:16:00
3:36 PM,24.8,17.6,74,30.15,10.0,West,5.8,-,N/A,,Mostly Cloudy,280,2012-11-13 22:36:00
3:56 PM,24.8,17.6,74,30.15,10.0,WNW,11.5,-,N/A,,Scattered Clouds,290,2012-11-13 22:56:00
4:16 PM,24.8,17.6,74,30.15,10.0,West,8.1,-,N/A,,Clear,280,2012-11-13 23:16:00
4:36 PM,23.0,17.6,80,30.15,10.0,West,10.4,-,N/A,,Clear,270,2012-11-13 23:36:00
4:56 PM,23.0,17.6,80,30.15,10.0,West,8.1,-,N/A,,Clear,270,2012-11-13 23:56:00
5:16 PM,23.0,19.4,86,30.16,10.0,WSW,8.1,-,N/A,,Scattered Clouds,250,2012-11-14 00:16:00
5:36 PM,23.0,19.4,86,30.16,10.0,SW,8.1,-,N/A,,Clear,230,2012-11-14 00:36:00
5:56 PM,23.0,17.6,80,30.16,10.0,SW,11.5,-,N/A,,Clear,220,2012-11-14 00:56:00
6:16 PM,24.8,14.0,64,30.16,10.0,SW,13.8,-,N/A,,Clear,220,2012-11-14 01:16:00
6:36 PM,24.8,15.8,69,30.16,10.0,SW,12.7,-,N/A,,Clear,230,2012-11-14 01:36:00
6:56 PM,24.8,15.8,69,30.16,10.0,SW,12.7,-,N/A,,Clear,230,2012-11-14 01:56:00
7:16 PM,24.8,15.8,69,30.16,10.0,SW,13.8,-,N/A,,Clear,230,2012-11-14 02:16:00
7:36 PM,24.8,15.8,69,30.16,10.0,WSW,12.7,-,N/A,,Clear,240,2012-11-14 02:36:00
7:56 PM,24.8,15.8,69,30.16,10.0,SW,12.7,-,N/A,,Clear,230,2012-11-14 02:56:00
8:16 PM,24.8,15.8,69,30.17,10.0,SW,12.7,-,N/A,,Clear,230,2012-11-14 03:16:00
8:36 PM,24.8,15.8,69,30.16,10.0,SW,11.5,-,N/A,,Clear,220,2012-11-14 03:36:00
8:56 PM,24.8,17.6,74,30.16,10.0,SSW,13.8,-,N/A,,Clear,210,2012-11-14 03:56:00
9:16 PM,24.8,17.6,74,30.16,10.0,SSW,12.7,-,N/A,,Clear,210,2012-11-14 04:16:00
9:36 PM,24.8,15.8,69,30.16,10.0,SW,12.7,-,N/A,,Clear,220,2012-11-14 04:36:00
9:56 PM,24.8,15.8,69,30.16,10.0,SW,13.8,-,N/A,,Clear,230,2012-11-14 04:56:00
10:16 PM,24.8,15.8,69,30.16,10.0,SW,13.8,-,N/A,,Clear,230,2012-11-14 05:16:00
10:36 PM,24.8,15.8,69,30.15,10.0,WSW,13.8,-,N/A,,Clear,240,2012-11-14 05:36:00
10:56 PM,24.8,15.8,69,30.15,10.0,WSW,13.8,-,N/A,,Clear,240,2012-11-14 05:56:00
11:16 PM,24.8,14.0,64,30.15,10.0,West,11.5,-,N/A,,Clear,260,2012-11-14 06:16:00
11:36 PM,24.8,14.0,64,30.15,10.0,WSW,11.5,-,N/A,,Clear,250,2012-11-14 06:36:00
11:56 PM,24.8,14.0,64,30.15,10.0,WSW,11.5,-,N/A,,Clear,240,2012-11-14 06:56:00